Time;durP1;ratioP1;P1;durP2;ratioP2;P2;SDS_P1;SDS_P2;PMS_P1;PMS_P2;Temp;Humidity;BMP_temperature;BMP_pressure;BME280_temperature;BME280_humidity;BME280_pressure;Samples;Min_cycle;Max_cycle;Signal;HPM_P1;HPM_P2
2021/09/30 00:00:31;;;;;;;6.20;1.10;;;12.80;91.20;;;;;;5110279;28;20549;-77
2021/09/30 00:02:56;;;;;;;9.18;1.38;;;12.70;91.30;;;;;;5111440;28;20020;-77
2021/09/30 00:05:22;;;;;;;9.85;1.65;;;12.80;91.50;;;;;;5110279;28;20028;-77
2021/09/30 00:07:48;;;;;;;6.65;2.40;;;12.80;91.60;;;;;;5111299;28;20051;-76
2021/09/30 00:10:18;;;;;;;7.72;1.13;;;12.80;91.80;;;;;;5110036;28;20051;-76
2021/09/30 00:12:50;;;;;;;7.03;1.30;;;12.80;92.00;;;;;;5111356;28;20073;-77
2021/09/30 00:15:28;;;;;;;6.90;1.25;;;12.80;92.10;;;;;;5111309;28;20024;-78
2021/09/30 00:18:09;;;;;;;6.38;2.33;;;12.80;92.40;;;;;;5094806;28;20553;-77
2021/09/30 00:34:22;;;;;;;8.10;1.75;;;12.80;93.30;;;;;;5114359;28;20541;-77
2021/09/30 00:40:11;;;;;;;4.70;0.85;;;12.80;93.50;;;;;;5114664;28;20063;-77
2021/09/30 00:50:32;;;;;;;9.05;1.67;;;12.90;94.10;;;;;;5115135;28;20378;-77
2021/09/30 02:19:54;;;;;;;2.92;0.50;;;13.50;96.90;;;;;;5112965;28;20487;-77
2021/09/30 02:22:35;;;;;;;2.95;0.52;;;13.60;97.00;;;;;;5111546;28;20107;-77
2021/09/30 02:28:14;;;;;;;5.75;0.57;;;13.60;97.00;;;;;;5097926;28;20093;-78
2021/09/30 02:31:09;;;;;;;2.30;0.60;;;13.70;97.10;;;;;;5112729;28;20039;-77
2021/09/30 03:00:56;;;;;;;1.55;0.40;;;14.30;97.20;;;;;;5112272;28;20050;-76
2021/09/30 03:03:24;;;;;;;2.88;0.70;;;14.30;97.20;;;;;;5110750;28;20072;-77
2021/09/30 03:05:54;;;;;;;2.58;0.65;;;14.30;97.30;;;;;;5110795;28;20020;-77
2021/09/30 03:08:31;;;;;;;1.58;0.47;;;14.30;97.30;;;;;;5111989;28;20083;-76
2021/09/30 03:11:00;;;;;;;2.55;0.50;;;14.40;97.40;;;;;;5111976;28;20028;-77
2021/09/30 03:13:29;;;;;;;1.70;0.45;;;14.40;97.40;;;;;;5112009;28;20024;-76
2021/09/30 03:23:36;;;;;;;5.30;1.00;;;14.60;97.50;;;;;;5111926;28;20019;-77
2021/09/30 03:26:02;;;;;;;3.10;0.63;;;14.60;97.50;;;;;;5110824;28;20028;-78
2021/09/30 03:28:30;;;;;;;4.38;0.70;;;14.60;97.60;;;;;;5110531;28;20188;-77
2021/09/30 03:30:58;;;;;;;3.80;0.80;;;14.60;97.70;;;;;;5112009;28;20032;-76
2021/09/30 03:33:25;;;;;;;6.75;1.52;;;14.60;97.80;;;;;;5110319;28;20111;-77
2021/09/30 03:35:52;;;;;;;2.03;0.43;;;14.60;97.90;;;;;;5111670;28;20501;-76
2021/09/30 03:38:19;;;;;;;6.90;1.00;;;14.50;97.90;;;;;;5111430;28;20048;-77
2021/09/30 03:40:45;;;;;;;4.18;0.90;;;14.60;98.00;;;;;;5110332;28;20030;-77
2021/09/30 03:43:11;;;;;;;5.85;0.82;;;14.60;98.00;;;;;;5111614;28;20028;-77
2021/09/30 03:45:38;;;;;;;2.97;0.52;;;14.60;98.00;;;;;;5110275;28;20027;-77
2021/09/30 03:48:04;;;;;;;6.65;1.00;;;14.70;98.00;;;;;;5111551;28;20474;-77
2021/09/30 03:50:40;;;;;;;;;;;14.70;98.00;;;;;;5112051;28;20555;-78
2021/09/30 03:53:14;;;;;;;3.47;0.70;;;14.80;98.00;;;;;;5094859;28;19908;-77
2021/09/30 04:01:08;;;;;;;4.15;0.80;;;14.90;98.00;;;;;;5114544;28;20042;-77
2021/09/30 04:03:34;;;;;;;6.30;0.75;;;14.90;98.00;;;;;;5114352;28;20019;-77
2021/09/30 04:06:01;;;;;;;4.90;0.77;;;14.90;98.10;;;;;;5097348;28;20039;-78
2021/09/30 04:08:27;;;;;;;7.07;1.60;;;14.90;98.10;;;;;;5114200;28;20030;-77
2021/09/30 04:10:53;;;;;;;5.35;0.95;;;14.90;98.20;;;;;;5115654;28;20130;-78
2021/09/30 04:13:19;;;;;;;4.32;0.98;;;14.90;98.20;;;;;;5114177;28;20373;-77
2021/09/30 04:15:47;;;;;;;4.20;1.10;;;15.00;98.30;;;;;;5114148;28;20038;-78
2021/09/30 04:18:12;;;;;;;4.18;0.63;;;15.00;98.40;;;;;;5115060;28;20042;-77
2021/09/30 04:20:38;;;;;;;5.93;0.77;;;15.00;98.50;;;;;;5080166;28;20410;-78
2021/09/30 04:23:04;;;;;;;3.85;0.77;;;15.00;98.60;;;;;;5113816;28;20111;-77
2021/09/30 04:25:30;;;;;;;4.53;0.70;;;15.00;98.60;;;;;;5113776;28;20493;-78
2021/09/30 04:27:56;;;;;;;5.57;0.80;;;15.00;98.70;;;;;;5113662;28;20036;-76
2021/09/30 04:30:22;;;;;;;5.35;0.80;;;15.00;98.80;;;;;;5096897;28;20054;-77
2021/09/30 04:32:47;;;;;;;4.50;0.77;;;15.00;98.90;;;;;;5115105;28;20087;-78
2021/09/30 04:35:13;;;;;;;3.10;0.80;;;15.00;98.90;;;;;;5115036;28;20026;-77
2021/09/30 04:37:39;;;;;;;3.05;0.75;;;15.00;99.00;;;;;;5115164;28;20039;-77
2021/09/30 04:40:05;;;;;;;5.30;0.80;;;15.00;99.10;;;;;;5113193;28;20040;-78
2021/09/30 04:42:31;;;;;;;;;;;15.10;99.10;;;;;;5115240;28;20385;-78
2021/09/30 04:44:56;;;;;;;3.03;0.65;;;15.10;99.10;;;;;;5114813;28;19915;-76
2021/09/30 04:47:22;;;;;;;5.05;0.88;;;15.10;99.00;;;;;;5114809;28;20023;-77
2021/09/30 04:49:48;;;;;;;4.47;0.50;;;15.20;99.10;;;;;;5096173;28;20504;-76
2021/09/30 04:52:14;;;;;;;4.03;0.68;;;15.20;99.10;;;;;;5114687;28;20048;-78
2021/09/30 04:54:40;;;;;;;4.18;0.68;;;15.20;99.20;;;;;;5096395;28;20044;-77
2021/09/30 04:57:06;;;;;;;3.65;0.57;;;15.30;99.20;;;;;;5114641;28;20461;-77
2021/09/30 04:59:33;;;;;;;2.97;0.60;;;15.40;99.20;;;;;;5096159;28;20043;-78
2021/09/30 05:01:58;;;;;;;3.15;1.05;;;15.40;99.20;;;;;;5114555;28;20068;-77
2021/09/30 05:04:24;;;;;;;2.95;0.80;;;15.40;99.20;;;;;;5114925;28;20098;-76
2021/09/30 05:06:51;;;;;;;4.32;0.90;;;15.50;99.20;;;;;;5114407;28;20028;-78
2021/09/30 05:09:18;;;;;;;5.07;1.15;;;15.50;99.30;;;;;;5113014;28;20027;-76
2021/09/30 05:11:51;;;;;;;;;;;15.60;99.30;;;;;;5112902;28;20084;-77
2021/09/30 05:14:17;;;;;;;1.90;0.57;;;15.60;99.30;;;;;;5112950;28;19908;-77
2021/09/30 05:16:42;;;;;;;2.80;0.73;;;15.60;99.20;;;;;;5114344;28;20023;-78
2021/09/30 05:19:08;;;;;;;3.40;0.60;;;15.60;99.30;;;;;;5113844;28;20474;-78
2021/09/30 05:21:34;;;;;;;3.78;1.02;;;15.70;99.30;;;;;;5095711;28;20028;-77
2021/09/30 05:24:00;;;;;;;2.80;0.55;;;15.70;99.30;;;;;;5114079;28;20093;-76
2021/09/30 05:26:28;;;;;;;1.58;0.50;;;15.70;99.30;;;;;;5112680;28;20024;-78
2021/09/30 05:29:00;;;;;;;3.75;1.05;;;15.80;99.30;;;;;;5112514;28;20499;-78
2021/09/30 05:31:27;;;;;;;2.40;0.75;;;15.80;99.40;;;;;;5113845;28;20024;-78
2021/09/30 05:33:53;;;;;;;3.28;1.00;;;15.80;99.40;;;;;;5113692;28;20062;-72
2021/09/30 05:36:19;;;;;;;2.80;1.17;;;15.90;99.40;;;;;;5113704;28;20054;-78
2021/09/30 05:38:45;;;;;;;4.03;0.50;;;16.00;99.40;;;;;;5095313;28;20047;-78
2021/09/30 05:41:10;;;;;;;2.83;0.60;;;15.90;99.40;;;;;;5095608;28;20039;-77
2021/09/30 05:43:38;;;;;;;2.13;0.52;;;16.00;99.30;;;;;;5095501;28;20107;-77
2021/09/30 05:46:06;;;;;;;2.95;0.60;;;16.00;99.40;;;;;;5113591;28;20032;-78
2021/09/30 05:48:31;;;;;;;3.05;0.60;;;16.10;99.40;;;;;;5112096;28;20027;-77
2021/09/30 05:50:58;;;;;;;3.22;0.55;;;16.10;99.40;;;;;;5113458;28;20035;-76
2021/09/30 05:53:24;;;;;;;1.33;0.40;;;16.10;99.40;;;;;;5112125;28;20408;-76
2021/09/30 05:55:50;;;;;;;2.30;0.45;;;16.10;99.40;;;;;;5113173;28;20028;-76
2021/09/30 05:58:17;;;;;;;2.22;0.45;;;16.20;99.40;;;;;;5112713;28;20027;-75
2021/09/30 06:00:52;;;;;;;2.15;0.38;;;16.20;99.40;;;;;;5113055;28;20046;-75
2021/09/30 06:12:07;;;;;;;3.95;0.85;;;16.20;99.50;;;;;;5112012;28;20496;-77
2021/09/30 06:14:06;;;;;;;2.53;0.40;;;16.30;99.50;;;;;;5100833;28;20092;-76
2021/09/30 06:16:35;;;;;;;3.38;0.88;;;16.30;99.50;;;;;;5112734;28;20060;-76
2021/09/30 06:19:03;;;;;;;2.10;0.60;;;16.30;99.50;;;;;;5111201;28;20508;-76
2021/09/30 06:21:28;;;;;;;2.38;0.65;;;16.40;99.50;;;;;;5111656;28;20055;-75
2021/09/30 06:23:54;;;;;;;3.60;0.57;;;16.40;99.40;;;;;;5110438;28;20097;-77
2021/09/30 06:26:20;;;;;;;2.95;0.60;;;16.40;99.40;;;;;;5112536;28;20371;-75
2021/09/30 06:28:46;;;;;;;1.67;0.60;;;16.40;99.40;;;;;;5111298;28;20032;-77
2021/09/30 06:31:11;;;;;;;5.72;1.05;;;16.40;99.40;;;;;;5094366;28;20401;-77
2021/09/30 06:33:37;;;;;;;1.65;0.40;;;16.50;99.40;;;;;;5112663;28;20027;-76
2021/09/30 06:36:03;;;;;;;;;;;16.50;99.30;;;;;;5111237;28;20055;-77
2021/09/30 06:38:30;;;;;;;2.90;0.75;;;16.50;99.30;;;;;;5093570;28;19926;-74
2021/09/30 06:40:56;;;;;;;4.85;0.60;;;16.50;99.30;;;;;;5112716;28;20023;-77
2021/09/30 06:43:21;;;;;;;2.42;0.50;;;16.50;99.30;;;;;;5111130;28;20020;-76
2021/09/30 06:45:50;;;;;;;1.77;0.50;;;16.50;99.40;;;;;;5093863;28;20036;-74
2021/09/30 06:48:16;;;;;;;2.25;0.70;;;16.50;99.40;;;;;;5110810;28;20509;-76
2021/09/30 06:50:41;;;;;;;2.05;0.38;;;16.60;99.40;;;;;;5111648;28;20032;-76
2021/09/30 06:53:07;;;;;;;2.15;0.50;;;16.60;99.40;;;;;;5110607;28;20106;-76
2021/09/30 06:55:33;;;;;;;2.47;0.43;;;16.60;99.30;;;;;;5111847;28;20436;-75
2021/09/30 06:58:00;;;;;;;3.92;0.82;;;16.60;99.30;;;;;;5111810;28;20032;-76
2021/09/30 07:00:26;;;;;;;4.32;0.57;;;16.60;99.30;;;;;;5110520;28;20118;-77
2021/09/30 07:02:53;;;;;;;2.00;0.40;;;16.60;99.30;;;;;;5111924;28;20018;-76
2021/09/30 07:05:19;;;;;;;3.75;0.50;;;16.60;99.30;;;;;;5094108;28;20024;-77
2021/09/30 07:07:45;;;;;;;2.42;0.47;;;16.60;99.50;;;;;;5111069;28;20069;-76
2021/09/30 07:10:11;;;;;;;2.45;0.57;;;16.60;99.30;;;;;;5109893;28;20035;-76
2021/09/30 07:12:38;;;;;;;;;;;16.60;99.30;;;;;;5110387;28;20072;-76
2021/09/30 07:15:04;;;;;;;1.55;0.38;;;16.70;99.60;;;;;;5109722;28;20010;-76
2021/09/30 07:17:30;;;;;;;2.72;0.50;;;16.70;99.20;;;;;;5111037;28;20038;-76
2021/09/30 07:19:57;;;;;;;3.25;0.40;;;16.70;99.20;;;;;;5109748;28;20032;-77
2021/09/30 07:22:24;;;;;;;1.92;0.65;;;16.70;99.20;;;;;;5093127;28;20137;-77
2021/09/30 07:24:50;;;;;;;0.90;0.30;;;16.80;99.20;;;;;;5111145;28;20494;-76
2021/09/30 07:27:16;;;;;;;2.05;0.40;;;16.80;99.20;;;;;;5092787;28;20118;-76
2021/09/30 07:29:42;;;;;;;0.90;0.28;;;16.80;99.20;;;;;;5111434;28;20031;-77
2021/09/30 07:32:08;;;;;;;1.02;0.35;;;16.70;99.10;;;;;;5112057;28;20028;-77
2021/09/30 07:34:33;;;;;;;1.15;0.40;;;16.80;99.20;;;;;;5110643;28;20038;-77
2021/09/30 07:37:00;;;;;;;0.68;0.20;;;16.80;99.30;;;;;;5093061;28;20111;-76
2021/09/30 07:39:25;;;;;;;1.13;0.30;;;16.80;99.30;;;;;;5110751;28;20126;-76
2021/09/30 07:41:52;;;;;;;1.00;0.40;;;16.80;99.30;;;;;;5110419;28;20077;-76
2021/09/30 07:44:18;;;;;;;1.33;0.40;;;16.80;99.30;;;;;;5109127;28;20019;-76
2021/09/30 07:46:46;;;;;;;5.90;1.60;;;16.80;99.40;;;;;;5110933;28;20028;-76
2021/09/30 07:49:12;;;;;;;1.27;0.30;;;16.90;99.40;;;;;;5110753;28;20075;-77
2021/09/30 07:51:39;;;;;;;2.10;0.50;;;16.90;99.40;;;;;;5109550;28;20481;-77
2021/09/30 07:54:06;;;;;;;1.92;0.50;;;16.90;99.30;;;;;;5109169;28;20362;-77
2021/09/30 07:56:33;;;;;;;1.15;0.40;;;17.00;99.30;;;;;;5092253;28;20066;-77
2021/09/30 07:59:00;;;;;;;6.85;0.63;;;17.10;99.20;;;;;;5092449;28;20056;-76
2021/09/30 08:01:26;;;;;;;3.03;0.80;;;17.10;99.10;;;;;;5111041;28;20140;-76
2021/09/30 08:03:52;;;;;;;;;;;17.20;99.00;;;;;;5109996;28;20549;-77
2021/09/30 08:06:19;;;;;;;4.13;0.80;;;17.30;98.90;;;;;;5098954;28;19943;-77
2021/09/30 08:08:45;;;;;;;4.68;0.90;;;17.30;98.70;;;;;;5100549;28;20396;-79
2021/09/30 08:11:11;;;;;;;3.28;0.80;;;17.40;98.60;;;;;;5103126;28;20012;-78
2021/09/30 08:13:37;;;;;;;2.88;0.75;;;17.40;98.60;;;;;;5101167;28;20016;-79
2021/09/30 08:16:04;;;;;;;1.23;0.45;;;17.50;98.40;;;;;;5100685;28;20028;-78
2021/09/30 08:18:30;;;;;;;3.42;0.68;;;17.50;98.30;;;;;;5108125;28;20069;-79
2021/09/30 08:20:56;;;;;;;5.38;0.63;;;17.50;98.20;;;;;;5112455;28;20377;-79
2021/09/30 08:23:22;;;;;;;3.05;0.50;;;17.50;98.10;;;;;;5102737;28;20076;-79
2021/09/30 08:25:48;;;;;;;2.58;0.77;;;17.60;98.10;;;;;;5090301;28;20074;-78
2021/09/30 08:28:14;;;;;;;2.45;0.43;;;17.60;98.00;;;;;;5089592;28;20048;-79
2021/09/30 08:30:41;;;;;;;1.73;0.40;;;17.60;97.90;;;;;;5091220;28;20392;-79
2021/09/30 08:33:10;;;;;;;2.92;0.30;;;17.70;97.70;;;;;;5089776;28;20020;-78
2021/09/30 08:35:38;;;;;;;2.65;0.60;;;17.70;97.50;;;;;;5091593;28;20024;-79
2021/09/30 08:38:05;;;;;;;4.10;0.70;;;17.70;97.40;;;;;;5090638;28;20451;-78
2021/09/30 08:40:31;;;;;;;2.53;0.50;;;17.80;97.40;;;;;;5073360;28;20024;-77
2021/09/30 08:42:57;;;;;;;;;;;17.90;97.40;;;;;;5091345;28;20474;-78
2021/09/30 08:45:23;;;;;;;3.08;0.95;;;18.10;97.20;;;;;;5091091;28;19998;-78
2021/09/30 08:47:58;;;;;;;2.08;0.70;;;18.20;96.90;;;;;;5093291;28;20048;-78
2021/09/30 08:50:24;;;;;;;2.80;0.70;;;18.40;96.40;;;;;;5095193;28;20036;-79
2021/09/30 08:52:50;;;;;;;4.55;0.90;;;18.40;96.20;;;;;;5094608;28;20103;-78
2021/09/30 08:55:16;;;;;;;3.30;1.05;;;18.50;96.10;;;;;;5093091;28;20123;-77
2021/09/30 08:57:46;;;;;;;3.67;1.20;;;18.60;95.70;;;;;;5093112;28;20461;-78
2021/09/30 09:00:12;;;;;;;4.13;0.90;;;18.60;95.30;;;;;;5076355;28;20032;-77
2021/09/30 09:03:05;;;;;;;3.58;0.70;;;18.60;95.20;;;;;;5060602;28;20042;-76
2021/09/30 09:05:31;;;;;;;4.57;0.90;;;18.60;95.00;;;;;;5089682;28;20062;-76
2021/09/30 09:08:01;;;;;;;;;;;18.70;94.90;;;;;;5093545;28;20019;-77
2021/09/30 09:10:32;;;;;;;3.70;0.65;;;18.70;94.90;;;;;;5094946;28;19947;-76
2021/09/30 09:13:17;;;;;;;4.22;0.80;;;18.70;94.60;;;;;;5095410;28;20020;-78
2021/09/30 09:15:57;;;;;;;3.67;0.90;;;18.60;94.50;;;;;;5095818;28;20478;-77
2021/09/30 09:18:35;;;;;;;4.80;1.08;;;18.60;94.40;;;;;;5094306;28;20024;-76
2021/09/30 09:21:20;;;;;;;3.47;1.20;;;18.40;94.40;;;;;;5094247;28;20051;-77
2021/09/30 09:23:52;;;;;;;2.53;0.60;;;18.40;94.40;;;;;;5101087;28;20364;-78
2021/09/30 09:26:27;;;;;;;3.42;0.77;;;18.30;94.20;;;;;;5109646;28;20055;-78
2021/09/30 09:29:09;;;;;;;3.88;1.00;;;18.30;94.20;;;;;;5097012;28;20028;-76
2021/09/30 09:31:39;;;;;;;3.55;0.80;;;18.20;94.20;;;;;;5105301;28;20038;-76
2021/09/30 09:34:28;;;;;;;4.60;1.63;;;18.20;94.20;;;;;;5106693;28;20032;-77
2021/09/30 09:37:14;;;;;;;3.83;0.80;;;18.30;94.40;;;;;;5104594;28;20024;-77
2021/09/30 09:39:39;;;;;;;10.60;2.57;;;18.50;94.10;;;;;;5105937;28;20074;-76
2021/09/30 09:42:06;;;;;;;4.07;0.95;;;18.70;94.00;;;;;;5098510;28;20028;-77
2021/09/30 09:44:32;;;;;;;8.20;1.65;;;18.80;93.80;;;;;;5088098;28;20044;-76
2021/09/30 09:46:57;;;;;;;7.82;1.10;;;18.90;93.50;;;;;;5112715;28;20031;-77
2021/09/30 09:49:23;;;;;;;5.15;1.45;;;19.00;93.40;;;;;;5107552;28;20084;-77
2021/09/30 09:51:51;;;;;;;;;;;19.10;93.00;;;;;;5106654;28;20027;-77
2021/09/30 09:54:20;;;;;;;6.15;1.52;;;19.10;92.90;;;;;;5088234;28;19912;-76
2021/09/30 09:56:47;;;;;;;7.68;1.75;;;19.10;92.50;;;;;;5111857;28;20024;-73
2021/09/30 09:59:28;;;;;;;6.82;1.85;;;19.00;92.30;;;;;;5099657;28;20339;-77
2021/09/30 10:01:54;;;;;;;7.38;1.40;;;18.90;92.20;;;;;;5113847;28;20105;-78
2021/09/30 10:04:20;;;;;;;6.45;1.13;;;18.80;92.00;;;;;;5114015;28;20099;-73
2021/09/30 10:06:46;;;;;;;5.40;1.13;;;18.70;91.90;;;;;;5114745;28;20458;-77
2021/09/30 10:09:13;;;;;;;9.18;1.55;;;18.60;91.90;;;;;;5113866;28;20044;-78
2021/09/30 10:11:39;;;;;;;6.25;1.70;;;18.40;92.00;;;;;;5097056;28;20126;-77
2021/09/30 10:14:07;;;;;;;6.97;2.20;;;18.40;92.10;;;;;;5115434;28;20530;-76
2021/09/30 10:16:35;;;;;;;11.10;2.63;;;18.40;92.20;;;;;;5116320;28;20084;-79
2021/09/30 10:19:04;;;;;;;15.95;2.58;;;18.30;92.20;;;;;;5113254;28;20106;-77
2021/09/30 10:21:32;;;;;;;4.20;1.23;;;18.30;92.20;;;;;;5113342;28;20027;-79
2021/09/30 10:24:04;;;;;;;8.63;1.52;;;18.20;92.20;;;;;;5115103;28;20028;-79
2021/09/30 10:26:40;;;;;;;8.10;1.40;;;18.20;92.30;;;;;;5113428;28;20038;-79
2021/09/30 10:29:06;;;;;;;3.83;1.50;;;18.10;92.40;;;;;;5114398;28;20381;-81
2021/09/30 10:31:37;;;;;;;6.15;1.33;;;18.10;92.30;;;;;;5114633;28;20265;-75
2021/09/30 10:34:34;;;;;;;6.22;1.25;;;18.00;92.30;;;;;;5113025;28;20104;-76
2021/09/30 10:37:21;;;;;;;10.65;2.63;;;18.00;92.50;;;;;;5114405;27;20829;-77
2021/09/30 10:40:12;;;;;;;6.10;1.30;;;18.20;92.60;;;;;;5114001;28;20058;-74
2021/09/30 10:42:58;;;;;;;4.18;0.82;;;18.30;92.30;;;;;;5113751;28;20031;-80
2021/09/30 10:45:38;;;;;;;4.95;0.98;;;18.40;91.90;;;;;;5113519;28;20024;-79
2021/09/30 10:48:28;;;;;;;5.13;1.00;;;18.30;91.90;;;;;;5112831;28;20118;-78
2021/09/30 10:50:56;;;;;;;4.32;1.00;;;18.00;92.10;;;;;;5089505;28;20373;-78
2021/09/30 10:53:47;;;;;;;8.32;1.70;;;17.70;92.30;;;;;;5113135;28;20023;-79
2021/09/30 10:56:39;;;;;;;8.73;1.33;;;17.40;92.80;;;;;;5113294;28;20020;-77
2021/09/30 10:59:08;;;;;;;12.93;2.20;;;17.30;93.00;;;;;;5104052;28;20112;-77
2021/09/30 11:01:46;;;;;;;14.18;2.35;;;17.20;93.10;;;;;;5112746;28;20055;-78
2021/09/30 11:04:13;;;;;;;12.07;1.80;;;17.20;93.10;;;;;;5112509;28;20031;-77
2021/09/30 11:06:40;;;;;;;11.73;2.38;;;17.10;93.10;;;;;;5113689;28;20026;-77
2021/09/30 11:09:18;;;;;;;15.70;3.20;;;17.10;93.00;;;;;;5113746;28;20136;-79
2021/09/30 11:12:05;;;;;;;15.57;3.47;;;17.00;92.90;;;;;;5105704;28;20016;-77
2021/09/30 11:14:33;;;;;;;12.95;3.33;;;17.00;93.10;;;;;;5095111;28;20024;-77
2021/09/30 11:16:59;;;;;;;18.35;3.22;;;17.10;93.10;;;;;;5091828;28;20027;-77
2021/09/30 11:19:29;;;;;;;13.65;2.70;;;17.30;93.10;;;;;;5100659;28;20535;-77
2021/09/30 11:22:01;;;;;;;18.30;3.47;;;17.60;93.10;;;;;;5099727;28;20028;-77
2021/09/30 11:24:35;;;;;;;8.18;2.45;;;17.80;92.70;;;;;;5103804;28;20114;-77
2021/09/30 11:27:07;;;;;;;14.82;3.20;;;18.00;92.30;;;;;;5103711;28;20024;-77
2021/09/30 11:29:33;;;;;;;16.48;2.95;;;18.10;91.90;;;;;;5090736;28;20035;-78
2021/09/30 11:31:59;;;;;;;15.95;3.13;;;18.30;91.80;;;;;;5080240;28;20031;-79
2021/09/30 11:34:34;;;;;;;15.25;3.35;;;18.30;91.30;;;;;;5093355;28;20024;-78
2021/09/30 11:37:20;;;;;;;15.60;3.65;;;18.30;91.00;;;;;;5103319;28;20032;-79
2021/09/30 11:39:50;;;;;;;13.60;3.30;;;18.20;90.90;;;;;;5104592;28;20040;-80
2021/09/30 11:42:22;;;;;;;13.02;2.88;;;18.00;90.80;;;;;;5104237;28;20114;-77
2021/09/30 11:45:24;;;;;;;19.35;4.20;;;17.80;90.80;;;;;;5098302;28;20039;-78
2021/09/30 11:47:59;;;;;;;13.90;2.78;;;17.50;90.80;;;;;;5092360;28;20512;-80
2021/09/30 11:50:29;;;;;;;15.40;2.70;;;17.40;91.00;;;;;;5092141;28;20020;-78
2021/09/30 11:53:04;;;;;;;11.20;2.58;;;17.20;91.00;;;;;;5108835;28;20023;-79
2021/09/30 11:55:31;;;;;;;19.35;3.67;;;17.10;91.20;;;;;;5098711;28;20030;-80
2021/09/30 11:58:07;;;;;;;12.88;2.45;;;16.90;91.40;;;;;;5097747;28;20024;-79
2021/09/30 12:00:33;;;;;;;17.60;2.65;;;16.80;91.80;;;;;;5101043;28;20024;-78
2021/09/30 12:03:00;;;;;;;;;;;16.70;91.90;;;;;;5092968;28;20043;-79
2021/09/30 12:05:31;;;;;;;13.07;3.20;;;16.70;92.10;;;;;;5113981;28;19908;-80
2021/09/30 12:07:58;;;;;;;9.10;2.30;;;16.60;92.20;;;;;;5098448;28;20024;-80
2021/09/30 12:10:25;;;;;;;7.40;2.22;;;16.50;92.30;;;;;;5093889;28;20050;-77
2021/09/30 12:12:51;;;;;;;8.75;1.88;;;16.50;92.50;;;;;;5098653;28;20020;-76
2021/09/30 12:15:17;;;;;;;10.27;2.90;;;16.60;92.60;;;;;;5105758;28;20077;-77
2021/09/30 12:17:43;;;;;;;11.23;2.30;;;16.70;92.90;;;;;;5112657;28;20030;-78
2021/09/30 12:20:12;;;;;;;11.55;1.60;;;16.90;92.70;;;;;;5091894;28;20036;-77
2021/09/30 12:22:55;;;;;;;13.10;2.00;;;17.00;92.60;;;;;;5112218;28;20107;-78
2021/09/30 12:25:25;;;;;;;13.10;3.03;;;17.10;92.40;;;;;;5089293;28;20046;-79
2021/09/30 12:27:54;;;;;;;13.73;2.25;;;17.20;92.20;;;;;;5099196;28;20083;-78
2021/09/30 12:30:23;;;;;;;15.85;2.83;;;17.40;92.00;;;;;;5106553;28;20023;-79
2021/09/30 12:32:52;;;;;;;13.55;2.70;;;17.50;91.80;;;;;;5097764;28;20081;-78
2021/09/30 12:35:30;;;;;;;17.27;3.25;;;17.70;91.60;;;;;;5108121;28;20016;-76
2021/09/30 12:38:02;;;;;;;9.85;2.25;;;17.80;91.40;;;;;;5106472;28;20053;-78
2021/09/30 12:40:43;;;;;;;9.60;2.10;;;17.90;91.00;;;;;;5112916;28;20042;-77
2021/09/30 12:43:10;;;;;;;10.88;2.35;;;18.00;90.80;;;;;;5106462;28;20047;-77
2021/09/30 12:45:42;;;;;;;12.85;2.45;;;18.10;90.90;;;;;;5114529;28;20038;-78
2021/09/30 12:48:10;;;;;;;14.93;2.30;;;18.20;90.70;;;;;;5101560;28;20023;-76
2021/09/30 12:50:44;;;;;;;7.65;2.05;;;18.30;90.50;;;;;;5106245;28;20449;-77
2021/09/30 12:53:12;;;;;;;12.25;2.58;;;18.30;90.30;;;;;;5097815;28;20035;-76
2021/09/30 12:55:38;;;;;;;9.43;2.97;;;18.40;90.30;;;;;;5098007;28;20036;-79
2021/09/30 12:58:04;;;;;;;15.85;4.03;;;18.50;89.90;;;;;;5104427;28;20102;-78
2021/09/30 13:00:33;;;;;;;19.50;3.65;;;18.40;89.40;;;;;;5106827;28;20031;-77
2021/09/30 13:03:12;;;;;;;15.80;2.33;;;18.40;89.40;;;;;;5104318;28;20012;-76
2021/09/30 13:05:50;;;;;;;12.45;2.20;;;18.50;88.60;;;;;;5102760;28;20050;-76
2021/09/30 13:08:40;;;;;;;13.65;2.53;;;18.40;88.30;;;;;;5100964;28;20011;-76
2021/09/30 13:11:28;;;;;;;15.38;3.53;;;18.40;88.10;;;;;;5105929;28;20042;-77
2021/09/30 13:14:18;;;;;;;15.18;3.58;;;18.40;88.10;;;;;;5107984;28;20385;-78
2021/09/30 13:16:47;;;;;;;11.60;2.47;;;18.40;87.80;;;;;;5100305;28;20028;-80
2021/09/30 13:19:13;;;;;;;19.80;4.32;;;18.30;87.60;;;;;;5114493;28;20031;-79
2021/09/30 13:21:57;;;;;;;18.25;3.88;;;18.20;87.80;;;;;;5093817;28;20522;-83
2021/09/30 13:24:24;;;;;;;20.13;5.07;;;18.10;87.70;;;;;;5107845;28;20034;-80
2021/09/30 13:26:50;;;;;;;18.08;3.08;;;18.00;87.80;;;;;;5098152;28;20503;-77
2021/09/30 13:29:16;;;;;;;17.33;2.97;;;18.00;88.00;;;;;;5088493;28;20114;-76
2021/09/30 13:31:41;;;;;;;15.82;4.15;;;18.00;88.00;;;;;;5106877;28;20394;-80
2021/09/30 13:34:07;;;;;;;10.23;2.72;;;18.00;87.80;;;;;;5114808;28;20161;-77
2021/09/30 13:36:33;;;;;;;34.58;4.57;;;18.10;87.60;;;;;;5116716;28;20043;-78
2021/09/30 13:38:59;;;;;;;19.33;4.25;;;18.10;87.40;;;;;;5116994;27;20079;-80
2021/09/30 13:41:25;;;;;;;;;;;18.10;87.50;;;;;;5099975;28;20031;-77
2021/09/30 13:43:51;;;;;;;19.30;3.47;;;18.10;87.60;;;;;;5114971;28;19910;-76
2021/09/30 13:46:17;;;;;;;15.38;3.05;;;18.10;87.40;;;;;;5115167;28;20122;-77
2021/09/30 13:48:43;;;;;;;14.25;2.65;;;18.10;87.40;;;;;;5116381;28;20054;-77
2021/09/30 13:51:09;;;;;;;16.75;3.40;;;18.20;87.40;;;;;;5114662;28;20036;-77
2021/09/30 13:53:35;;;;;;;15.90;2.80;;;18.30;87.30;;;;;;5115641;28;20369;-77
2021/09/30 13:56:00;;;;;;;18.00;5.18;;;18.30;87.10;;;;;;5096546;28;20024;-78
2021/09/30 13:58:26;;;;;;;15.02;3.15;;;18.40;87.10;;;;;;5067650;28;20051;-76
2021/09/30 14:00:52;;;;;;;13.30;4.07;;;18.40;86.80;;;;;;5079876;28;20028;-78
2021/09/30 14:03:18;;;;;;;;;;;18.50;86.40;;;;;;5107278;28;20165;-79
2021/09/30 14:05:44;;;;;;;20.35;3.00;;;18.50;86.10;;;;;;5109120;28;19948;-78
2021/09/30 14:08:12;;;;;;;19.88;3.15;;;18.40;86.00;;;;;;5097066;28;20032;-77
2021/09/30 14:10:38;;;;;;;15.90;2.97;;;18.40;86.00;;;;;;5106085;28;20052;-78
2021/09/30 14:13:03;;;;;;;;;;;18.40;85.80;;;;;;5104332;28;20077;-77
2021/09/30 14:15:29;;;;;;;16.60;2.33;;;18.30;85.90;;;;;;5101622;28;19954;-78
2021/09/30 14:17:55;;;;;;;16.08;2.88;;;18.30;85.90;;;;;;5107001;28;20523;-79
2021/09/30 14:20:21;;;;;;;12.75;2.15;;;18.20;85.80;;;;;;5080131;28;20039;-80
2021/09/30 14:22:46;;;;;;;13.55;2.65;;;18.30;85.90;;;;;;5080664;28;20465;-78
2021/09/30 14:25:13;;;;;;;12.48;3.42;;;18.20;85.70;;;;;;5089724;28;20028;-80
2021/09/30 14:27:40;;;;;;;17.35;3.22;;;18.20;85.60;;;;;;5106164;28;20801;-77
2021/09/30 14:30:06;;;;;;;;;;;18.30;85.60;;;;;;5113184;28;20191;-77
2021/09/30 14:32:32;;;;;;;13.52;2.42;;;18.30;85.50;;;;;;5095270;28;19912;-80
2021/09/30 14:34:58;;;;;;;11.90;2.97;;;18.30;85.40;;;;;;5098478;28;20085;-81
2021/09/30 14:37:23;;;;;;;21.27;3.58;;;18.40;85.40;;;;;;5059421;28;20028;-81
2021/09/30 14:39:49;;;;;;;13.15;2.75;;;18.40;85.00;;;;;;5106128;28;20143;-79
2021/09/30 14:42:16;;;;;;;13.32;2.97;;;18.40;84.60;;;;;;5094149;28;20028;-78
2021/09/30 14:44:42;;;;;;;15.07;3.28;;;18.40;84.60;;;;;;5101195;28;20031;-80
2021/09/30 14:47:08;;;;;;;17.65;2.75;;;18.40;84.70;;;;;;5095178;28;20358;-79
2021/09/30 14:49:38;;;;;;;17.90;3.25;;;18.40;84.90;;;;;;5092453;28;20425;-78
2021/09/30 14:52:06;;;;;;;18.92;2.88;;;18.50;85.10;;;;;;5103755;28;20405;-80
2021/09/30 14:54:32;;;;;;;12.50;2.45;;;18.50;84.80;;;;;;5094522;28;20030;-81
2021/09/30 14:56:57;;;;;;;13.52;3.10;;;18.40;84.50;;;;;;5095295;28;20099;-80
2021/09/30 14:59:23;;;;;;;13.68;3.08;;;18.30;84.60;;;;;;5105866;28;20031;-79
2021/09/30 15:01:49;;;;;;;13.45;2.97;;;18.20;84.70;;;;;;5107904;28;20033;-80
2021/09/30 15:04:15;;;;;;;14.63;2.88;;;18.20;84.60;;;;;;5099304;28;20035;-79
2021/09/30 15:06:40;;;;;;;13.13;2.30;;;18.10;84.60;;;;;;5098939;28;20028;-80
2021/09/30 15:09:07;;;;;;;13.13;2.80;;;18.10;84.80;;;;;;5069379;28;20032;-78
2021/09/30 15:11:34;;;;;;;13.55;2.53;;;18.00;84.80;;;;;;5103084;28;20047;-77
2021/09/30 15:14:00;;;;;;;13.55;2.72;;;18.00;84.80;;;;;;5097795;28;20031;-77
2021/09/30 15:16:27;;;;;;;16.52;3.70;;;17.90;84.90;;;;;;5102817;28;20110;-78
2021/09/30 15:18:55;;;;;;;15.32;2.95;;;17.80;85.20;;;;;;5103823;28;20040;-77
2021/09/30 15:21:21;;;;;;;16.67;2.65;;;17.80;85.50;;;;;;5101787;28;20370;-76
2021/09/30 15:23:55;;;;;;;17.00;3.20;;;17.80;85.70;;;;;;5100167;28;20103;-75
2021/09/30 15:26:21;;;;;;;14.85;2.78;;;17.80;85.70;;;;;;5106481;28;20024;-77
2021/09/30 15:28:48;;;;;;;18.63;3.25;;;17.70;85.70;;;;;;5102337;28;20024;-77
2021/09/30 15:31:13;;;;;;;;;;;17.70;86.00;;;;;;5092685;28;20062;-77
2021/09/30 15:33:40;;;;;;;18.00;3.70;;;17.60;86.40;;;;;;5080422;28;19995;-77
2021/09/30 15:36:06;;;;;;;10.70;3.42;;;17.50;86.50;;;;;;5101523;28;20027;-77
2021/09/30 15:38:31;;;;;;;16.50;3.47;;;17.50;86.80;;;;;;5099763;28;20355;-77
2021/09/30 15:40:57;;;;;;;18.08;3.53;;;17.40;87.10;;;;;;5077865;28;20034;-77